sensor_id;sensor_type;location;lat;lon;timestamp;P1;durP1;ratioP1;P2;durP2;ratioP2
43509;SDS011;29105;57.764;40.952;2023-08-06T00:00:38;8.15;;;4.55;;
43509;SDS011;29105;57.764;40.952;2023-08-06T00:03:04;7.63;;;4.97;;
43509;SDS011;29105;57.764;40.952;2023-08-06T00:05:31;7.93;;;4.55;;
43509;SDS011;29105;57.764;40.952;2023-08-06T00:07:57;15.15;;;5.07;;
43509;SDS011;29105;57.764;40.952;2023-08-06T00:10:23;9.75;;;5.22;;
43509;SDS011;29105;57.764;40.952;2023-08-06T00:12:49;8.88;;;5.78;;
43509;SDS011;29105;57.764;40.952;2023-08-06T00:15:15;8.27;;;4.97;;
43509;SDS011;29105;57.764;40.952;2023-08-06T00:17:41;7.28;;;4.25;;
43509;SDS011;29105;57.764;40.952;2023-08-06T00:20:07;4.70;;;3.20;;
43509;SDS011;29105;57.764;40.952;2023-08-06T00:22:34;4.55;;;3.90;;
43509;SDS011;29105;57.764;40.952;2023-08-06T00:25:01;3.95;;;3.30;;
43509;SDS011;29105;57.764;40.952;2023-08-06T00:27:29;9.23;;;4.22;;
43509;SDS011;29105;57.764;40.952;2023-08-06T00:29:55;6.22;;;4.95;;
43509;SDS011;29105;57.764;40.952;2023-08-06T00:32:20;7.50;;;4.97;;
43509;SDS011;29105;57.764;40.952;2023-08-06T00:34:46;12.38;;;5.22;;
43509;SDS011;29105;57.764;40.952;2023-08-06T00:37:15;10.52;;;4.47;;
43509;SDS011;29105;57.764;40.952;2023-08-06T00:39:41;4.82;;;3.50;;
43509;SDS011;29105;57.764;40.952;2023-08-06T00:42:10;8.38;;;4.57;;
43509;SDS011;29105;57.764;40.952;2023-08-06T00:44:36;7.03;;;4.55;;
43509;SDS011;29105;57.764;40.952;2023-08-06T00:47:02;6.07;;;4.63;;
43509;SDS011;29105;57.764;40.952;2023-08-06T00:49:28;5.35;;;4.10;;
43509;SDS011;29105;57.764;40.952;2023-08-06T00:51:54;9.80;;;4.80;;
43509;SDS011;29105;57.764;40.952;2023-08-06T00:54:20;10.90;;;4.97;;
43509;SDS011;29105;57.764;40.952;2023-08-06T00:56:46;5.47;;;2.97;;
43509;SDS011;29105;57.764;40.952;2023-08-06T00:59:12;11.02;;;4.63;;
43509;SDS011;29105;57.764;40.952;2023-08-06T01:01:38;10.68;;;3.47;;
43509;SDS011;29105;57.764;40.952;2023-08-06T01:04:03;7.45;;;3.85;;
43509;SDS011;29105;57.764;40.952;2023-08-06T01:09:30;4.88;;;2.92;;
43509;SDS011;29105;57.764;40.952;2023-08-06T01:15:21;7.32;;;3.20;;
43509;SDS011;29105;57.764;40.952;2023-08-06T01:17:48;4.32;;;3.33;;
43509;SDS011;29105;57.764;40.952;2023-08-06T01:20:14;7.47;;;3.00;;
43509;SDS011;29105;57.764;40.952;2023-08-06T01:22:40;8.50;;;4.20;;
43509;SDS011;29105;57.764;40.952;2023-08-06T01:25:05;6.35;;;3.53;;
43509;SDS011;29105;57.764;40.952;2023-08-06T01:27:41;7.53;;;4.03;;
43509;SDS011;29105;57.764;40.952;2023-08-06T01:30:15;9.30;;;4.95;;
43509;SDS011;29105;57.764;40.952;2023-08-06T01:32:43;5.85;;;3.50;;
43509;SDS011;29105;57.764;40.952;2023-08-06T01:35:11;6.30;;;4.07;;
43509;SDS011;29105;57.764;40.952;2023-08-06T01:37:38;9.30;;;4.80;;
43509;SDS011;29105;57.764;40.952;2023-08-06T01:40:09;12.10;;;5.13;;
43509;SDS011;29105;57.764;40.952;2023-08-06T01:42:39;5.20;;;4.57;;
43509;SDS011;29105;57.764;40.952;2023-08-06T01:45:08;9.07;;;3.88;;
43509;SDS011;29105;57.764;40.952;2023-08-06T01:47:34;10.25;;;4.30;;
43509;SDS011;29105;57.764;40.952;2023-08-06T01:50:00;10.93;;;4.18;;
43509;SDS011;29105;57.764;40.952;2023-08-06T01:52:26;8.02;;;3.50;;
43509;SDS011;29105;57.764;40.952;2023-08-06T01:54:52;7.70;;;3.90;;
43509;SDS011;29105;57.764;40.952;2023-08-06T01:57:18;5.68;;;3.45;;
43509;SDS011;29105;57.764;40.952;2023-08-06T01:59:44;6.32;;;3.25;;
43509;SDS011;29105;57.764;40.952;2023-08-06T02:02:10;6.55;;;3.10;;
43509;SDS011;29105;57.764;40.952;2023-08-06T02:04:35;5.47;;;3.35;;
43509;SDS011;29105;57.764;40.952;2023-08-06T02:07:01;6.90;;;4.88;;
43509;SDS011;29105;57.764;40.952;2023-08-06T02:09:27;12.80;;;5.38;;
43509;SDS011;29105;57.764;40.952;2023-08-06T02:11:52;7.47;;;4.47;;
43509;SDS011;29105;57.764;40.952;2023-08-06T02:14:18;9.05;;;4.63;;
43509;SDS011;29105;57.764;40.952;2023-08-06T02:16:43;5.13;;;2.90;;
43509;SDS011;29105;57.764;40.952;2023-08-06T02:19:09;6.25;;;3.85;;
43509;SDS011;29105;57.764;40.952;2023-08-06T02:21:35;5.80;;;3.47;;
43509;SDS011;29105;57.764;40.952;2023-08-06T02:24:01;5.90;;;3.80;;
43509;SDS011;29105;57.764;40.952;2023-08-06T02:26:27;6.07;;;2.97;;
43509;SDS011;29105;57.764;40.952;2023-08-06T02:28:53;6.30;;;2.65;;
43509;SDS011;29105;57.764;40.952;2023-08-06T02:31:18;4.75;;;3.28;;
43509;SDS011;29105;57.764;40.952;2023-08-06T02:33:44;8.38;;;3.22;;
43509;SDS011;29105;57.764;40.952;2023-08-06T02:36:09;5.05;;;3.42;;
43509;SDS011;29105;57.764;40.952;2023-08-06T02:38:35;5.47;;;3.70;;
43509;SDS011;29105;57.764;40.952;2023-08-06T02:41:04;8.18;;;3.22;;
43509;SDS011;29105;57.764;40.952;2023-08-06T02:43:29;5.70;;;3.17;;
43509;SDS011;29105;57.764;40.952;2023-08-06T02:45:59;4.40;;;2.58;;
43509;SDS011;29105;57.764;40.952;2023-08-06T02:48:25;7.65;;;3.65;;
43509;SDS011;29105;57.764;40.952;2023-08-06T02:50:51;5.85;;;3.85;;
43509;SDS011;29105;57.764;40.952;2023-08-06T02:53:16;4.47;;;2.63;;
43509;SDS011;29105;57.764;40.952;2023-08-06T02:55:46;6.03;;;2.95;;
43509;SDS011;29105;57.764;40.952;2023-08-06T02:58:16;5.60;;;2.70;;
43509;SDS011;29105;57.764;40.952;2023-08-06T03:00:42;5.47;;;2.45;;
43509;SDS011;29105;57.764;40.952;2023-08-06T03:03:09;8.60;;;3.05;;
43509;SDS011;29105;57.764;40.952;2023-08-06T03:05:35;5.97;;;2.92;;
43509;SDS011;29105;57.764;40.952;2023-08-06T03:08:01;4.25;;;2.80;;
43509;SDS011;29105;57.764;40.952;2023-08-06T03:10:26;5.97;;;2.47;;
43509;SDS011;29105;57.764;40.952;2023-08-06T03:12:52;6.10;;;3.25;;
43509;SDS011;29105;57.764;40.952;2023-08-06T03:15:18;7.70;;;3.45;;
43509;SDS011;29105;57.764;40.952;2023-08-06T03:17:43;5.53;;;2.75;;
43509;SDS011;29105;57.764;40.952;2023-08-06T03:20:09;7.80;;;3.45;;
43509;SDS011;29105;57.764;40.952;2023-08-06T03:22:35;8.48;;;3.65;;
43509;SDS011;29105;57.764;40.952;2023-08-06T03:25:01;6.95;;;3.05;;
43509;SDS011;29105;57.764;40.952;2023-08-06T03:27:30;7.30;;;3.17;;
43509;SDS011;29105;57.764;40.952;2023-08-06T03:29:56;8.02;;;2.88;;
43509;SDS011;29105;57.764;40.952;2023-08-06T03:32:22;5.40;;;1.77;;
43509;SDS011;29105;57.764;40.952;2023-08-06T03:34:47;5.70;;;2.78;;
43509;SDS011;29105;57.764;40.952;2023-08-06T03:37:13;7.90;;;2.60;;
43509;SDS011;29105;57.764;40.952;2023-08-06T03:39:39;2.28;;;2.08;;
43509;SDS011;29105;57.764;40.952;2023-08-06T03:42:04;4.80;;;2.15;;
43509;SDS011;29105;57.764;40.952;2023-08-06T03:44:30;5.55;;;2.08;;
43509;SDS011;29105;57.764;40.952;2023-08-06T03:46:56;5.10;;;1.85;;
43509;SDS011;29105;57.764;40.952;2023-08-06T03:49:21;2.40;;;1.48;;
43509;SDS011;29105;57.764;40.952;2023-08-06T03:51:47;4.20;;;2.28;;
43509;SDS011;29105;57.764;40.952;2023-08-06T03:54:13;3.65;;;1.30;;
43509;SDS011;29105;57.764;40.952;2023-08-06T03:56:38;4.45;;;1.73;;
43509;SDS011;29105;57.764;40.952;2023-08-06T03:59:04;5.50;;;1.40;;
43509;SDS011;29105;57.764;40.952;2023-08-06T04:01:30;3.88;;;1.13;;
43509;SDS011;29105;57.764;40.952;2023-08-06T04:03:55;6.53;;;1.40;;
43509;SDS011;29105;57.764;40.952;2023-08-06T04:06:21;5.25;;;0.90;;
43509;SDS011;29105;57.764;40.952;2023-08-06T04:08:47;4.13;;;1.25;;
43509;SDS011;29105;57.764;40.952;2023-08-06T04:11:12;6.05;;;1.10;;
43509;SDS011;29105;57.764;40.952;2023-08-06T04:13:38;3.45;;;1.63;;
43509;SDS011;29105;57.764;40.952;2023-08-06T04:16:07;7.18;;;1.80;;
43509;SDS011;29105;57.764;40.952;2023-08-06T04:18:32;3.33;;;1.77;;
43509;SDS011;29105;57.764;40.952;2023-08-06T04:20:58;3.10;;;1.60;;
43509;SDS011;29105;57.764;40.952;2023-08-06T04:23:23;6.75;;;1.95;;
43509;SDS011;29105;57.764;40.952;2023-08-06T04:25:50;5.63;;;1.45;;
43509;SDS011;29105;57.764;40.952;2023-08-06T04:28:15;7.90;;;1.73;;
43509;SDS011;29105;57.764;40.952;2023-08-06T04:30:41;7.05;;;1.70;;
43509;SDS011;29105;57.764;40.952;2023-08-06T04:33:07;5.55;;;1.50;;
43509;SDS011;29105;57.764;40.952;2023-08-06T04:35:32;4.90;;;2.00;;
43509;SDS011;29105;57.764;40.952;2023-08-06T04:37:58;5.15;;;2.35;;
43509;SDS011;29105;57.764;40.952;2023-08-06T04:40:23;5.10;;;1.70;;
43509;SDS011;29105;57.764;40.952;2023-08-06T04:42:49;1.75;;;1.35;;
43509;SDS011;29105;57.764;40.952;2023-08-06T04:45:15;4.00;;;1.63;;
43509;SDS011;29105;57.764;40.952;2023-08-06T04:47:40;5.80;;;1.48;;
43509;SDS011;29105;57.764;40.952;2023-08-06T04:50:06;5.18;;;2.08;;
43509;SDS011;29105;57.764;40.952;2023-08-06T04:52:32;5.03;;;2.13;;
43509;SDS011;29105;57.764;40.952;2023-08-06T04:54:58;5.07;;;1.92;;
43509;SDS011;29105;57.764;40.952;2023-08-06T04:57:23;12.38;;;1.70;;
43509;SDS011;29105;57.764;40.952;2023-08-06T04:59:49;3.20;;;1.33;;
43509;SDS011;29105;57.764;40.952;2023-08-06T05:02:15;6.07;;;1.60;;
43509;SDS011;29105;57.764;40.952;2023-08-06T05:04:41;3.03;;;1.65;;
43509;SDS011;29105;57.764;40.952;2023-08-06T05:07:06;7.95;;;1.30;;
43509;SDS011;29105;57.764;40.952;2023-08-06T05:09:32;3.22;;;0.73;;
43509;SDS011;29105;57.764;40.952;2023-08-06T05:12:00;5.80;;;0.80;;
43509;SDS011;29105;57.764;40.952;2023-08-06T05:14:26;2.47;;;1.27;;
43509;SDS011;29105;57.764;40.952;2023-08-06T05:16:52;2.05;;;0.60;;
43509;SDS011;29105;57.764;40.952;2023-08-06T05:19:17;3.83;;;0.88;;
43509;SDS011;29105;57.764;40.952;2023-08-06T05:21:43;1.58;;;0.90;;
43509;SDS011;29105;57.764;40.952;2023-08-06T05:24:09;4.63;;;0.50;;
43509;SDS011;29105;57.764;40.952;2023-08-06T05:26:34;6.80;;;0.70;;
43509;SDS011;29105;57.764;40.952;2023-08-06T05:29:00;6.90;;;0.80;;
43509;SDS011;29105;57.764;40.952;2023-08-06T05:31:26;1.67;;;0.60;;
43509;SDS011;29105;57.764;40.952;2023-08-06T05:33:54;1.50;;;0.38;;
43509;SDS011;29105;57.764;40.952;2023-08-06T05:36:20;1.55;;;0.70;;
43509;SDS011;29105;57.764;40.952;2023-08-06T05:38:46;0.52;;;0.30;;
43509;SDS011;29105;57.764;40.952;2023-08-06T05:41:12;2.25;;;0.50;;
43509;SDS011;29105;57.764;40.952;2023-08-06T05:43:38;2.10;;;0.57;;
43509;SDS011;29105;57.764;40.952;2023-08-06T05:46:04;6.28;;;0.47;;
43509;SDS011;29105;57.764;40.952;2023-08-06T05:48:29;2.08;;;0.60;;
43509;SDS011;29105;57.764;40.952;2023-08-06T05:50:55;1.00;;;0.50;;
43509;SDS011;29105;57.764;40.952;2023-08-06T05:53:20;2.85;;;0.47;;
43509;SDS011;29105;57.764;40.952;2023-08-06T05:55:47;6.03;;;0.40;;
43509;SDS011;29105;57.764;40.952;2023-08-06T05:58:12;2.20;;;0.47;;
43509;SDS011;29105;57.764;40.952;2023-08-06T06:00:38;2.88;;;0.47;;
43509;SDS011;29105;57.764;40.952;2023-08-06T06:03:04;1.27;;;0.50;;
43509;SDS011;29105;57.764;40.952;2023-08-06T06:05:30;1.55;;;0.50;;
43509;SDS011;29105;57.764;40.952;2023-08-06T06:07:55;3.50;;;0.70;;
43509;SDS011;29105;57.764;40.952;2023-08-06T06:10:21;1.73;;;0.57;;
43509;SDS011;29105;57.764;40.952;2023-08-06T06:12:47;1.27;;;0.40;;
43509;SDS011;29105;57.764;40.952;2023-08-06T06:15:15;3.60;;;0.55;;
43509;SDS011;29105;57.764;40.952;2023-08-06T06:17:40;1.88;;;0.68;;
43509;SDS011;29105;57.764;40.952;2023-08-06T06:20:06;2.00;;;0.50;;
43509;SDS011;29105;57.764;40.952;2023-08-06T06:22:32;2.40;;;0.40;;
43509;SDS011;29105;57.764;40.952;2023-08-06T06:24:58;3.67;;;0.60;;
43509;SDS011;29105;57.764;40.952;2023-08-06T06:27:23;5.50;;;0.60;;
43509;SDS011;29105;57.764;40.952;2023-08-06T06:29:49;3.25;;;0.50;;
43509;SDS011;29105;57.764;40.952;2023-08-06T06:32:14;4.78;;;0.73;;
43509;SDS011;29105;57.764;40.952;2023-08-06T06:34:40;4.13;;;0.73;;
43509;SDS011;29105;57.764;40.952;2023-08-06T06:37:06;2.20;;;0.90;;
43509;SDS011;29105;57.764;40.952;2023-08-06T06:39:31;2.75;;;0.63;;
43509;SDS011;29105;57.764;40.952;2023-08-06T06:41:57;2.15;;;0.50;;
43509;SDS011;29105;57.764;40.952;2023-08-06T06:44:23;3.13;;;0.55;;
43509;SDS011;29105;57.764;40.952;2023-08-06T06:46:48;4.07;;;0.50;;
43509;SDS011;29105;57.764;40.952;2023-08-06T06:49:14;3.50;;;0.93;;
43509;SDS011;29105;57.764;40.952;2023-08-06T06:51:40;3.47;;;1.20;;
43509;SDS011;29105;57.764;40.952;2023-08-06T06:54:05;1.77;;;0.50;;
43509;SDS011;29105;57.764;40.952;2023-08-06T06:56:31;7.03;;;0.43;;
43509;SDS011;29105;57.764;40.952;2023-08-06T06:58:57;4.05;;;1.25;;
43509;SDS011;29105;57.764;40.952;2023-08-06T07:01:22;4.10;;;1.17;;
43509;SDS011;29105;57.764;40.952;2023-08-06T07:03:48;3.38;;;0.30;;
43509;SDS011;29105;57.764;40.952;2023-08-06T07:06:14;5.88;;;0.65;;
43509;SDS011;29105;57.764;40.952;2023-08-06T07:08:41;4.97;;;1.02;;
43509;SDS011;29105;57.764;40.952;2023-08-06T07:11:06;5.78;;;0.32;;
43509;SDS011;29105;57.764;40.952;2023-08-06T07:13:33;2.42;;;0.35;;
43509;SDS011;29105;57.764;40.952;2023-08-06T07:15:59;1.83;;;0.65;;
43509;SDS011;29105;57.764;40.952;2023-08-06T07:18:25;0.90;;;0.38;;
43509;SDS011;29105;57.764;40.952;2023-08-06T07:20:51;4.53;;;0.45;;
43509;SDS011;29105;57.764;40.952;2023-08-06T07:23:19;1.33;;;0.30;;
43509;SDS011;29105;57.764;40.952;2023-08-06T07:25:48;1.95;;;0.40;;
43509;SDS011;29105;57.764;40.952;2023-08-06T07:28:14;2.45;;;0.40;;
43509;SDS011;29105;57.764;40.952;2023-08-06T07:30:41;2.08;;;0.13;;
43509;SDS011;29105;57.764;40.952;2023-08-06T07:33:07;1.08;;;0.50;;
43509;SDS011;29105;57.764;40.952;2023-08-06T07:35:33;2.33;;;0.50;;
43509;SDS011;29105;57.764;40.952;2023-08-06T07:38:01;1.42;;;0.60;;
43509;SDS011;29105;57.764;40.952;2023-08-06T07:40:26;3.58;;;0.57;;
43509;SDS011;29105;57.764;40.952;2023-08-06T07:42:52;2.00;;;0.30;;
43509;SDS011;29105;57.764;40.952;2023-08-06T07:45:18;2.20;;;0.60;;
43509;SDS011;29105;57.764;40.952;2023-08-06T07:47:44;2.50;;;0.47;;
43509;SDS011;29105;57.764;40.952;2023-08-06T07:50:10;0.75;;;0.35;;
43509;SDS011;29105;57.764;40.952;2023-08-06T07:52:36;3.90;;;0.22;;
43509;SDS011;29105;57.764;40.952;2023-08-06T07:55:01;2.75;;;0.52;;
43509;SDS011;29105;57.764;40.952;2023-08-06T07:57:31;2.80;;;0.40;;
43509;SDS011;29105;57.764;40.952;2023-08-06T07:59:57;2.22;;;0.50;;
43509;SDS011;29105;57.764;40.952;2023-08-06T08:02:24;2.85;;;0.45;;
43509;SDS011;29105;57.764;40.952;2023-08-06T08:04:49;2.70;;;0.68;;
43509;SDS011;29105;57.764;40.952;2023-08-06T08:07:15;2.50;;;0.82;;
43509;SDS011;29105;57.764;40.952;2023-08-06T08:09:41;4.20;;;0.73;;
43509;SDS011;29105;57.764;40.952;2023-08-06T08:12:07;2.80;;;0.30;;
43509;SDS011;29105;57.764;40.952;2023-08-06T08:14:32;2.65;;;0.52;;
43509;SDS011;29105;57.764;40.952;2023-08-06T08:17:02;1.02;;;0.35;;
43509;SDS011;29105;57.764;40.952;2023-08-06T08:19:29;1.15;;;0.40;;
43509;SDS011;29105;57.764;40.952;2023-08-06T08:21:55;3.25;;;0.30;;
43509;SDS011;29105;57.764;40.952;2023-08-06T08:24:20;3.55;;;0.77;;
43509;SDS011;29105;57.764;40.952;2023-08-06T08:26:52;2.05;;;0.55;;
43509;SDS011;29105;57.764;40.952;2023-08-06T08:29:21;5.00;;;0.43;;
43509;SDS011;29105;57.764;40.952;2023-08-06T08:31:47;3.13;;;0.50;;
43509;SDS011;29105;57.764;40.952;2023-08-06T08:34:18;3.42;;;0.40;;
43509;SDS011;29105;57.764;40.952;2023-08-06T08:36:43;5.20;;;0.52;;
43509;SDS011;29105;57.764;40.952;2023-08-06T08:39:13;3.08;;;0.35;;
43509;SDS011;29105;57.764;40.952;2023-08-06T08:41:39;3.00;;;0.30;;
43509;SDS011;29105;57.764;40.952;2023-08-06T08:44:09;2.58;;;0.32;;
43509;SDS011;29105;57.764;40.952;2023-08-06T08:46:36;4.90;;;0.60;;
43509;SDS011;29105;57.764;40.952;2023-08-06T08:49:03;4.38;;;0.60;;
43509;SDS011;29105;57.764;40.952;2023-08-06T08:51:29;4.15;;;0.60;;
43509;SDS011;29105;57.764;40.952;2023-08-06T08:53:56;5.47;;;0.60;;
43509;SDS011;29105;57.764;40.952;2023-08-06T08:56:22;3.75;;;0.30;;
43509;SDS011;29105;57.764;40.952;2023-08-06T08:58:49;2.10;;;0.40;;
43509;SDS011;29105;57.764;40.952;2023-08-06T09:01:17;2.70;;;0.20;;
43509;SDS011;29105;57.764;40.952;2023-08-06T09:03:43;1.48;;;0.50;;
43509;SDS011;29105;57.764;40.952;2023-08-06T09:06:08;1.60;;;0.57;;
43509;SDS011;29105;57.764;40.952;2023-08-06T09:08:38;1.33;;;0.40;;
43509;SDS011;29105;57.764;40.952;2023-08-06T09:11:08;1.65;;;0.40;;
43509;SDS011;29105;57.764;40.952;2023-08-06T09:13:35;0.68;;;0.30;;
43509;SDS011;29105;57.764;40.952;2023-08-06T09:16:03;2.60;;;0.55;;
43509;SDS011;29105;57.764;40.952;2023-08-06T09:18:29;5.15;;;0.50;;
43509;SDS011;29105;57.764;40.952;2023-08-06T09:20:56;2.85;;;0.50;;
43509;SDS011;29105;57.764;40.952;2023-08-06T09:23:29;0.70;;;0.22;;
43509;SDS011;29105;57.764;40.952;2023-08-06T09:25:56;3.17;;;0.43;;
43509;SDS011;29105;57.764;40.952;2023-08-06T09:28:22;1.98;;;0.30;;
43509;SDS011;29105;57.764;40.952;2023-08-06T09:30:49;2.38;;;0.32;;
43509;SDS011;29105;57.764;40.952;2023-08-06T09:33:19;0.75;;;0.30;;
43509;SDS011;29105;57.764;40.952;2023-08-06T09:35:47;2.22;;;0.40;;
43509;SDS011;29105;57.764;40.952;2023-08-06T09:38:13;1.73;;;0.32;;
43509;SDS011;29105;57.764;40.952;2023-08-06T09:40:39;3.08;;;0.30;;
43509;SDS011;29105;57.764;40.952;2023-08-06T09:43:05;1.70;;;0.20;;
43509;SDS011;29105;57.764;40.952;2023-08-06T09:45:33;4.85;;;0.30;;
43509;SDS011;29105;57.764;40.952;2023-08-06T09:48:07;0.70;;;0.20;;
43509;SDS011;29105;57.764;40.952;2023-08-06T09:50:34;1.95;;;0.28;;
43509;SDS011;29105;57.764;40.952;2023-08-06T09:53:05;2.25;;;0.50;;
43509;SDS011;29105;57.764;40.952;2023-08-06T09:55:31;1.25;;;0.30;;
43509;SDS011;29105;57.764;40.952;2023-08-06T09:57:58;1.73;;;0.50;;
43509;SDS011;29105;57.764;40.952;2023-08-06T10:00:24;9.00;;;1.02;;
43509;SDS011;29105;57.764;40.952;2023-08-06T10:02:51;1.42;;;0.30;;
43509;SDS011;29105;57.764;40.952;2023-08-06T10:05:20;1.45;;;0.35;;
43509;SDS011;29105;57.764;40.952;2023-08-06T10:07:46;1.45;;;0.30;;
43509;SDS011;29105;57.764;40.952;2023-08-06T10:10:12;2.88;;;0.52;;
43509;SDS011;29105;57.764;40.952;2023-08-06T10:12:43;1.27;;;0.22;;
43509;SDS011;29105;57.764;40.952;2023-08-06T10:15:16;2.47;;;0.55;;
43509;SDS011;29105;57.764;40.952;2023-08-06T10:17:43;4.72;;;1.35;;
43509;SDS011;29105;57.764;40.952;2023-08-06T10:20:10;1.98;;;0.75;;
43509;SDS011;29105;57.764;40.952;2023-08-06T10:22:36;4.55;;;1.25;;
43509;SDS011;29105;57.764;40.952;2023-08-06T10:25:02;3.65;;;1.15;;
43509;SDS011;29105;57.764;40.952;2023-08-06T10:27:41;4.07;;;1.50;;
43509;SDS011;29105;57.764;40.952;2023-08-06T10:30:25;5.10;;;0.30;;
43509;SDS011;29105;57.764;40.952;2023-08-06T10:32:54;1.67;;;0.50;;
43509;SDS011;29105;57.764;40.952;2023-08-06T10:35:35;1.83;;;0.40;;
43509;SDS011;29105;57.764;40.952;2023-08-06T10:38:05;2.85;;;0.30;;
43509;SDS011;29105;57.764;40.952;2023-08-06T10:41:03;2.60;;;0.32;;
43509;SDS011;29105;57.764;40.952;2023-08-06T10:45:55;6.28;;;0.50;;
43509;SDS011;29105;57.764;40.952;2023-08-06T10:48:34;3.75;;;0.60;;
43509;SDS011;29105;57.764;40.952;2023-08-06T10:51:04;1.05;;;0.30;;
43509;SDS011;29105;57.764;40.952;2023-08-06T10:53:32;2.67;;;0.38;;
43509;SDS011;29105;57.764;40.952;2023-08-06T10:55:58;3.80;;;0.22;;
43509;SDS011;29105;57.764;40.952;2023-08-06T10:58:24;1.10;;;0.22;;
43509;SDS011;29105;57.764;40.952;2023-08-06T11:00:50;0.98;;;0.20;;
43509;SDS011;29105;57.764;40.952;2023-08-06T11:03:15;6.90;;;0.82;;
43509;SDS011;29105;57.764;40.952;2023-08-06T11:05:48;0.65;;;0.20;;
43509;SDS011;29105;57.764;40.952;2023-08-06T11:08:23;1.90;;;0.20;;
43509;SDS011;29105;57.764;40.952;2023-08-06T11:10:50;2.35;;;0.25;;
43509;SDS011;29105;57.764;40.952;2023-08-06T11:13:18;1.40;;;0.30;;
43509;SDS011;29105;57.764;40.952;2023-08-06T11:15:45;2.72;;;0.47;;
43509;SDS011;29105;57.764;40.952;2023-08-06T11:18:11;2.55;;;0.40;;
43509;SDS011;29105;57.764;40.952;2023-08-06T11:20:36;1.55;;;0.50;;
43509;SDS011;29105;57.764;40.952;2023-08-06T11:23:02;2.15;;;0.82;;
43509;SDS011;29105;57.764;40.952;2023-08-06T11:25:29;3.08;;;0.55;;
43509;SDS011;29105;57.764;40.952;2023-08-06T11:27:55;3.33;;;0.45;;
43509;SDS011;29105;57.764;40.952;2023-08-06T11:30:21;1.70;;;0.30;;
43509;SDS011;29105;57.764;40.952;2023-08-06T11:32:47;3.42;;;0.40;;
43509;SDS011;29105;57.764;40.952;2023-08-06T11:35:13;5.90;;;0.50;;
43509;SDS011;29105;57.764;40.952;2023-08-06T11:37:43;1.88;;;0.40;;
43509;SDS011;29105;57.764;40.952;2023-08-06T11:40:10;3.00;;;1.00;;
43509;SDS011;29105;57.764;40.952;2023-08-06T11:42:36;2.15;;;0.30;;
43509;SDS011;29105;57.764;40.952;2023-08-06T11:45:02;2.28;;;0.50;;
43509;SDS011;29105;57.764;40.952;2023-08-06T11:47:31;1.52;;;0.30;;
43509;SDS011;29105;57.764;40.952;2023-08-06T11:49:57;1.65;;;0.60;;
43509;SDS011;29105;57.764;40.952;2023-08-06T11:52:23;4.30;;;0.88;;
43509;SDS011;29105;57.764;40.952;2023-08-06T11:55:03;3.85;;;0.63;;
43509;SDS011;29105;57.764;40.952;2023-08-06T11:57:33;1.23;;;0.38;;
43509;SDS011;29105;57.764;40.952;2023-08-06T12:00:05;2.15;;;0.32;;
43509;SDS011;29105;57.764;40.952;2023-08-06T12:02:33;6.72;;;0.73;;
43509;SDS011;29105;57.764;40.952;2023-08-06T12:07:40;3.70;;;0.70;;
43509;SDS011;29105;57.764;40.952;2023-08-06T12:10:07;4.88;;;0.40;;
43509;SDS011;29105;57.764;40.952;2023-08-06T12:12:33;0.98;;;0.30;;
43509;SDS011;29105;57.764;40.952;2023-08-06T12:15:00;1.45;;;0.50;;
43509;SDS011;29105;57.764;40.952;2023-08-06T12:17:26;6.45;;;0.45;;
43509;SDS011;29105;57.764;40.952;2023-08-06T12:19:52;0.60;;;0.40;;
43509;SDS011;29105;57.764;40.952;2023-08-06T12:22:17;2.10;;;0.38;;
43509;SDS011;29105;57.764;40.952;2023-08-06T12:24:44;6.40;;;0.47;;
43509;SDS011;29105;57.764;40.952;2023-08-06T12:27:11;3.92;;;0.68;;
43509;SDS011;29105;57.764;40.952;2023-08-06T12:29:37;1.80;;;0.60;;
43509;SDS011;29105;57.764;40.952;2023-08-06T12:32:06;3.28;;;0.73;;
43509;SDS011;29105;57.764;40.952;2023-08-06T12:34:32;4.43;;;0.57;;
43509;SDS011;29105;57.764;40.952;2023-08-06T12:36:57;3.60;;;0.40;;
43509;SDS011;29105;57.764;40.952;2023-08-06T12:39:23;1.88;;;0.40;;
43509;SDS011;29105;57.764;40.952;2023-08-06T12:41:49;1.33;;;0.57;;
43509;SDS011;29105;57.764;40.952;2023-08-06T12:44:15;1.60;;;0.60;;
43509;SDS011;29105;57.764;40.952;2023-08-06T12:46:40;2.30;;;0.40;;
43509;SDS011;29105;57.764;40.952;2023-08-06T12:49:06;4.25;;;0.60;;
43509;SDS011;29105;57.764;40.952;2023-08-06T12:51:32;2.88;;;0.30;;
43509;SDS011;29105;57.764;40.952;2023-08-06T12:53:59;1.50;;;0.60;;
43509;SDS011;29105;57.764;40.952;2023-08-06T12:56:25;2.90;;;0.82;;
43509;SDS011;29105;57.764;40.952;2023-08-06T12:58:50;2.42;;;0.40;;
43509;SDS011;29105;57.764;40.952;2023-08-06T13:01:16;2.15;;;0.40;;
43509;SDS011;29105;57.764;40.952;2023-08-06T13:03:42;2.95;;;1.08;;
43509;SDS011;29105;57.764;40.952;2023-08-06T13:06:08;2.05;;;1.00;;
43509;SDS011;29105;57.764;40.952;2023-08-06T13:08:35;3.15;;;0.60;;
43509;SDS011;29105;57.764;40.952;2023-08-06T13:11:01;1.55;;;0.65;;
43509;SDS011;29105;57.764;40.952;2023-08-06T13:13:27;4.53;;;0.80;;
43509;SDS011;29105;57.764;40.952;2023-08-06T13:15:52;1.58;;;0.52;;
43509;SDS011;29105;57.764;40.952;2023-08-06T13:18:18;3.38;;;0.82;;
43509;SDS011;29105;57.764;40.952;2023-08-06T13:20:44;1.75;;;0.57;;
43509;SDS011;29105;57.764;40.952;2023-08-06T13:23:12;2.03;;;0.50;;
43509;SDS011;29105;57.764;40.952;2023-08-06T13:25:40;5.72;;;1.13;;
43509;SDS011;29105;57.764;40.952;2023-08-06T13:28:06;2.25;;;0.93;;
43509;SDS011;29105;57.764;40.952;2023-08-06T13:30:32;2.22;;;0.88;;
43509;SDS011;29105;57.764;40.952;2023-08-06T13:32:59;2.92;;;0.52;;
43509;SDS011;29105;57.764;40.952;2023-08-06T13:35:25;3.55;;;0.85;;
43509;SDS011;29105;57.764;40.952;2023-08-06T13:37:51;2.03;;;0.47;;
43509;SDS011;29105;57.764;40.952;2023-08-06T13:40:17;2.35;;;0.45;;
43509;SDS011;29105;57.764;40.952;2023-08-06T13:42:43;5.63;;;0.90;;
43509;SDS011;29105;57.764;40.952;2023-08-06T13:45:08;6.60;;;0.52;;
43509;SDS011;29105;57.764;40.952;2023-08-06T13:47:34;3.05;;;1.17;;
43509;SDS011;29105;57.764;40.952;2023-08-06T13:50:00;6.72;;;0.93;;
43509;SDS011;29105;57.764;40.952;2023-08-06T13:52:26;2.45;;;0.70;;
43509;SDS011;29105;57.764;40.952;2023-08-06T13:54:52;1.25;;;0.60;;
43509;SDS011;29105;57.764;40.952;2023-08-06T13:57:18;3.95;;;0.75;;
43509;SDS011;29105;57.764;40.952;2023-08-06T13:59:43;4.50;;;0.77;;
43509;SDS011;29105;57.764;40.952;2023-08-06T14:02:10;1.70;;;0.40;;
43509;SDS011;29105;57.764;40.952;2023-08-06T14:04:36;1.30;;;0.50;;
43509;SDS011;29105;57.764;40.952;2023-08-06T14:07:03;2.28;;;0.77;;
43509;SDS011;29105;57.764;40.952;2023-08-06T14:09:29;4.60;;;0.82;;
43509;SDS011;29105;57.764;40.952;2023-08-06T14:11:55;3.42;;;0.60;;
43509;SDS011;29105;57.764;40.952;2023-08-06T14:14:21;3.20;;;0.70;;
43509;SDS011;29105;57.764;40.952;2023-08-06T14:16:52;2.20;;;0.60;;
43509;SDS011;29105;57.764;40.952;2023-08-06T14:19:19;2.72;;;0.88;;
43509;SDS011;29105;57.764;40.952;2023-08-06T14:21:45;4.07;;;0.70;;
43509;SDS011;29105;57.764;40.952;2023-08-06T14:24:11;4.85;;;1.75;;
43509;SDS011;29105;57.764;40.952;2023-08-06T14:26:37;5.45;;;1.65;;
43509;SDS011;29105;57.764;40.952;2023-08-06T14:29:02;6.13;;;0.95;;
43509;SDS011;29105;57.764;40.952;2023-08-06T14:31:28;2.72;;;0.60;;
43509;SDS011;29105;57.764;40.952;2023-08-06T14:33:54;3.50;;;1.00;;
43509;SDS011;29105;57.764;40.952;2023-08-06T14:36:20;3.88;;;1.30;;
43509;SDS011;29105;57.764;40.952;2023-08-06T14:38:46;4.13;;;0.75;;
43509;SDS011;29105;57.764;40.952;2023-08-06T14:41:11;2.40;;;0.98;;